createdAt,value
2024-03-27T00:00:20.806Z,4.90
2024-03-27T00:03:44.684Z,3.70
2024-03-27T00:06:34.775Z,3.90
2024-03-27T00:09:24.483Z,3.80
2024-03-27T00:12:14.446Z,3.90
2024-03-27T00:15:05.184Z,4.40
2024-03-27T00:17:54.959Z,4.80
2024-03-27T00:20:44.907Z,5.40
2024-03-27T00:23:34.884Z,4.30
2024-03-27T00:26:24.569Z,4.10
2024-03-27T00:29:14.454Z,4.30
2024-03-27T00:32:04.844Z,4.20
2024-03-27T00:34:54.522Z,5.00
2024-03-27T00:37:44.502Z,5.10
2024-03-27T00:40:34.179Z,3.70
2024-03-27T00:43:24.076Z,4.70
2024-03-27T00:46:13.848Z,4.60
2024-03-27T00:49:05.683Z,4.70
2024-03-27T00:51:55.555Z,4.20
2024-03-27T00:54:45.544Z,4.50
2024-03-27T00:57:35.317Z,4.30
2024-03-27T01:00:25.303Z,4.20
2024-03-27T01:03:16.174Z,4.10
2024-03-27T01:06:06.406Z,4.60
2024-03-27T01:08:56.079Z,3.90
2024-03-27T01:11:46.362Z,4.20
2024-03-27T01:14:36.044Z,4.30
2024-03-27T01:17:25.744Z,4.40
2024-03-27T01:20:17.379Z,4.20
2024-03-27T01:23:07.644Z,4.40
2024-03-27T01:25:57.422Z,4.30
2024-03-27T01:28:47.093Z,4.20
2024-03-27T01:31:36.376Z,4.50
2024-03-27T01:34:26.259Z,5.20
2024-03-27T01:37:16.431Z,4.30
2024-03-27T01:40:07.109Z,5.10
2024-03-27T01:43:02.724Z,4.50
2024-03-27T01:45:52.543Z,4.80
2024-03-27T01:48:42.314Z,4.30
2024-03-27T01:51:32.408Z,5.00
2024-03-27T01:54:23.102Z,4.80
2024-03-27T01:57:12.261Z,4.90
2024-03-27T02:00:02.148Z,4.60
2024-03-27T02:03:04.225Z,5.70
2024-03-27T02:05:54.210Z,5.50
2024-03-27T02:08:43.573Z,5.40
2024-03-27T02:11:33.975Z,4.20
2024-03-27T02:14:23.748Z,4.70
2024-03-27T02:17:20.076Z,4.60
2024-03-27T02:20:11.602Z,5.90
2024-03-27T02:23:05.566Z,5.70
2024-03-27T02:26:12.046Z,4.90
2024-03-27T02:29:03.158Z,4.90
2024-03-27T02:31:52.640Z,5.20
2024-03-27T02:34:42.204Z,5.20
2024-03-27T02:37:32.321Z,5.60
2024-03-27T02:40:21.868Z,5.40
2024-03-27T02:43:11.339Z,5.10
2024-03-27T02:46:01.241Z,4.50
2024-03-27T02:48:51.007Z,4.80
2024-03-27T02:51:40.574Z,5.00
2024-03-27T02:54:30.478Z,5.10
2024-03-27T02:57:20.247Z,4.60
2024-03-27T03:00:12.093Z,4.70
2024-03-27T03:03:01.549Z,5.00
2024-03-27T03:05:51.442Z,4.10
2024-03-27T03:08:41.415Z,5.10
2024-03-27T03:11:31.190Z,5.20
2024-03-27T03:14:21.587Z,5.20
2024-03-27T03:17:11.672Z,5.20
2024-03-27T03:20:00.934Z,5.10
2024-03-27T03:22:53.902Z,5.50
2024-03-27T03:25:43.677Z,4.60
2024-03-27T03:28:33.065Z,4.50
2024-03-27T03:31:22.918Z,4.90
2024-03-27T03:34:13.013Z,4.90
2024-03-27T03:37:02.094Z,4.80
2024-03-27T03:39:52.506Z,4.60
2024-03-27T03:42:42.046Z,5.00
2024-03-27T03:45:32.134Z,5.40
2024-03-27T03:48:25.134Z,4.30
2024-03-27T03:51:14.361Z,4.80
2024-03-27T03:54:06.798Z,5.00
2024-03-27T03:56:56.572Z,5.40
2024-03-27T03:59:46.666Z,5.20
2024-03-27T04:02:36.366Z,5.00
2024-03-27T04:05:26.250Z,5.10
2024-03-27T04:08:16.110Z,5.30
2024-03-27T04:11:05.796Z,4.90
2024-03-27T04:13:55.973Z,5.40
2024-03-27T04:16:45.666Z,5.10
2024-03-27T04:19:36.565Z,5.10
2024-03-27T04:22:26.031Z,4.60
2024-03-27T04:25:15.715Z,4.20
2024-03-27T04:28:05.896Z,4.90
2024-03-27T04:30:55.568Z,4.80
2024-03-27T04:33:45.048Z,4.80
2024-03-27T04:36:35.034Z,5.60
2024-03-27T04:39:26.359Z,5.50
2024-03-27T04:42:17.053Z,4.40
2024-03-27T04:45:08.692Z,4.60
2024-03-27T04:47:58.480Z,4.80
2024-03-27T04:50:48.246Z,5.10
2024-03-27T04:53:38.636Z,4.90
2024-03-27T04:56:28.207Z,5.10
2024-03-27T04:59:18.290Z,5.40
2024-03-27T05:02:08.165Z,5.00
2024-03-27T05:04:57.956Z,4.70
2024-03-27T05:07:47.535Z,4.90
2024-03-27T05:10:37.317Z,4.80
2024-03-27T05:13:27.608Z,4.90
2024-03-27T05:16:18.014Z,4.60
2024-03-27T05:19:08.310Z,4.50
2024-03-27T05:21:57.770Z,4.10
2024-03-27T05:24:48.887Z,5.50
2024-03-27T05:27:39.409Z,6.50
2024-03-27T05:30:29.060Z,5.70
2024-03-27T05:33:19.352Z,4.90
2024-03-27T05:36:17.228Z,5.60
2024-03-27T05:39:12.927Z,4.90
2024-03-27T05:42:02.960Z,4.90
2024-03-27T05:44:53.414Z,4.90
2024-03-27T05:47:43.592Z,4.80
2024-03-27T05:50:34.321Z,4.80
2024-03-27T05:53:24.603Z,4.60
2024-03-27T05:56:14.711Z,4.90
2024-03-27T05:59:04.957Z,4.50
2024-03-27T06:01:55.272Z,3.60
2024-03-27T06:04:45.466Z,4.10
2024-03-27T06:07:35.467Z,3.80
2024-03-27T06:10:26.037Z,4.00
2024-03-27T06:13:16.545Z,5.00
2024-03-27T06:16:07.049Z,7.30
2024-03-27T06:18:56.825Z,6.50
2024-03-27T06:21:46.402Z,4.60
2024-03-27T06:24:36.278Z,4.30
2024-03-27T06:27:26.598Z,4.60
2024-03-27T06:30:17.141Z,3.10
2024-03-27T06:33:07.382Z,4.40
2024-03-27T06:35:58.066Z,4.50
2024-03-27T06:38:50.080Z,4.50
2024-03-27T06:41:43.775Z,4.90
2024-03-27T06:44:35.456Z,2.70
2024-03-27T06:47:27.821Z,2.60
2024-03-27T06:50:18.016Z,2.40
2024-03-27T06:53:08.317Z,2.40
2024-03-27T06:55:58.602Z,2.60
2024-03-27T06:58:48.375Z,2.30
2024-03-27T07:01:39.545Z,2.60
2024-03-27T07:04:29.988Z,2.30
2024-03-27T07:07:19.863Z,2.20
2024-03-27T07:10:10.053Z,2.60
2024-03-27T07:12:59.616Z,2.60
2024-03-27T07:15:54.188Z,2.70
2024-03-27T07:18:44.127Z,3.50
2024-03-27T07:21:33.671Z,3.50
2024-03-27T07:24:23.243Z,2.90
2024-03-27T07:27:12.918Z,2.70
2024-03-27T07:30:03.043Z,3.10
2024-03-27T07:32:53.184Z,2.60
2024-03-27T07:35:42.680Z,2.80
2024-03-27T07:38:32.550Z,2.60
2024-03-27T07:41:22.244Z,2.40
2024-03-27T07:44:13.095Z,3.00
2024-03-27T07:47:02.727Z,3.20
2024-03-27T07:49:52.495Z,3.00
2024-03-27T07:52:44.294Z,3.10
2024-03-27T07:55:33.584Z,2.90
2024-03-27T07:58:23.390Z,3.50
2024-03-27T08:01:13.530Z,2.70
2024-03-27T08:04:03.567Z,2.70
2024-03-27T08:06:57.478Z,2.80
2024-03-27T08:09:53.901Z,2.40
2024-03-27T08:12:44.285Z,2.40
2024-03-27T08:15:39.917Z,2.70
2024-03-27T08:18:45.205Z,8.20
2024-03-27T08:21:36.159Z,3.10
2024-03-27T08:24:26.460Z,2.80
2024-03-27T08:27:16.395Z,2.50
2024-03-27T08:30:07.510Z,2.50
2024-03-27T08:32:57.605Z,2.80
2024-03-27T08:35:48.007Z,2.50
2024-03-27T08:38:40.654Z,2.80
2024-03-27T08:41:31.560Z,2.40
2024-03-27T08:44:21.250Z,2.70
2024-03-27T08:47:11.818Z,2.80
2024-03-27T08:50:02.244Z,2.70
2024-03-27T08:52:52.117Z,2.90
2024-03-27T08:55:42.921Z,3.40
2024-03-27T08:58:33.232Z,2.70
2024-03-27T09:01:22.769Z,2.40
2024-03-27T09:04:12.703Z,2.70
2024-03-27T09:07:02.853Z,2.70
2024-03-27T09:09:53.039Z,2.80
2024-03-27T09:12:43.545Z,3.00
2024-03-27T09:15:34.132Z,2.50
2024-03-27T09:18:24.728Z,2.60
2024-03-27T09:21:14.723Z,2.50
2024-03-27T09:24:05.543Z,2.80
2024-03-27T09:26:55.833Z,3.30
2024-03-27T09:29:46.098Z,3.40
2024-03-27T09:32:35.693Z,2.60
2024-03-27T09:35:26.208Z,2.50
2024-03-27T09:38:16.888Z,2.70
2024-03-27T09:41:07.485Z,3.00
2024-03-27T09:43:57.879Z,2.20
2024-03-27T09:46:49.601Z,2.70
2024-03-27T09:49:39.606Z,2.60
2024-03-27T09:52:30.330Z,3.10
2024-03-27T09:55:20.569Z,2.30
2024-03-27T09:58:15.991Z,2.40
2024-03-27T10:01:09.967Z,2.40
2024-03-27T10:04:01.181Z,3.00
2024-03-27T10:06:53.105Z,3.20
2024-03-27T10:09:42.727Z,2.50
2024-03-27T10:12:32.815Z,2.40
2024-03-27T10:15:23.316Z,2.80
2024-03-27T10:18:13.568Z,2.60
2024-03-27T10:21:03.650Z,2.10
2024-03-27T10:23:54.052Z,2.70
2024-03-27T10:26:49.581Z,2.30
2024-03-27T10:29:40.252Z,2.00
2024-03-27T10:32:30.171Z,1.90
2024-03-27T10:35:20.229Z,2.10
2024-03-27T10:38:10.727Z,1.90
2024-03-27T10:41:04.518Z,2.10
2024-03-27T10:43:58.145Z,2.00
2024-03-27T10:46:48.881Z,1.70
2024-03-27T10:49:39.780Z,1.80
2024-03-27T10:52:29.858Z,1.80
2024-03-27T10:55:20.255Z,1.50
2024-03-27T10:58:11.070Z,1.90
2024-03-27T11:01:01.377Z,2.20
2024-03-27T11:06:42.264Z,2.00
2024-03-27T11:09:32.743Z,1.40
2024-03-27T11:12:22.822Z,1.80
2024-03-27T11:15:13.225Z,1.60
2024-03-27T11:18:03.115Z,1.70
2024-03-27T11:20:55.033Z,1.70
2024-03-27T11:23:47.369Z,1.50
2024-03-27T11:26:37.484Z,2.00
2024-03-27T11:29:31.338Z,1.80
2024-03-27T11:32:21.637Z,1.30
2024-03-27T11:35:15.297Z,1.40
2024-03-27T11:38:05.178Z,1.20
2024-03-27T11:40:55.100Z,1.30
2024-03-27T11:43:45.670Z,1.40
2024-03-27T11:46:36.052Z,1.80
2024-03-27T11:49:26.251Z,1.50
2024-03-27T11:52:16.740Z,1.50
2024-03-27T11:55:07.905Z,1.20
2024-03-27T11:57:58.659Z,1.40
2024-03-27T12:00:50.583Z,1.30
2024-03-27T12:03:40.587Z,1.40
2024-03-27T12:06:31.102Z,1.30
2024-03-27T12:09:21.762Z,1.40
2024-03-27T12:12:11.465Z,1.70
2024-03-27T12:15:01.830Z,1.30
2024-03-27T12:17:57.868Z,1.30
2024-03-27T12:20:48.178Z,1.70
2024-03-27T12:23:44.723Z,1.50
2024-03-27T12:26:35.005Z,1.40
2024-03-27T12:29:25.180Z,1.60
2024-03-27T12:32:19.783Z,1.20
2024-03-27T12:35:09.980Z,1.50
2024-03-27T12:38:00.449Z,1.20
2024-03-27T12:40:50.851Z,1.10
2024-03-27T12:43:41.661Z,1.00
2024-03-27T12:46:32.464Z,1.20
2024-03-27T12:49:22.343Z,1.30
2024-03-27T12:52:13.146Z,1.30
2024-03-27T12:55:04.459Z,1.50
2024-03-27T12:57:54.455Z,1.50
2024-03-27T13:00:45.055Z,1.60
2024-03-27T13:03:34.939Z,1.50
2024-03-27T13:06:25.132Z,1.70
2024-03-27T13:09:15.822Z,1.30
2024-03-27T13:12:06.468Z,1.40
2024-03-27T13:14:56.709Z,1.20
2024-03-27T13:17:47.336Z,2.00
2024-03-27T13:20:38.122Z,1.50
2024-03-27T13:23:28.910Z,2.00
2024-03-27T13:26:19.622Z,1.60
2024-03-27T13:29:09.713Z,1.40
2024-03-27T13:31:59.370Z,1.50
2024-03-27T13:34:49.667Z,1.50
2024-03-27T13:37:40.060Z,1.80
2024-03-27T13:40:30.056Z,1.50
2024-03-27T13:43:20.251Z,1.60
2024-03-27T13:46:10.335Z,1.50
2024-03-27T13:49:00.432Z,1.50
2024-03-27T13:51:50.414Z,1.30
2024-03-27T13:54:41.047Z,1.60
2024-03-27T13:57:31.211Z,1.80
2024-03-27T14:00:21.486Z,1.90
2024-03-27T14:03:11.468Z,1.30
2024-03-27T14:06:01.378Z,1.40
2024-03-27T14:08:51.628Z,1.80
2024-03-27T14:11:41.722Z,1.60
2024-03-27T14:14:32.216Z,1.80
2024-03-27T14:20:13.014Z,1.90
2024-03-27T14:23:02.692Z,1.90
2024-03-27T14:25:53.275Z,1.70
2024-03-27T14:28:43.257Z,2.20
2024-03-27T14:31:32.942Z,1.60
2024-03-27T14:34:23.226Z,1.70
2024-03-27T14:37:12.904Z,2.00
2024-03-27T14:40:04.011Z,1.80
2024-03-27T14:42:53.506Z,1.70
2024-03-27T14:45:43.784Z,1.40
2024-03-27T14:48:33.773Z,1.60
2024-03-27T14:51:24.674Z,1.40
2024-03-27T14:54:14.557Z,1.60
2024-03-27T14:57:04.640Z,1.50
2024-03-27T14:59:54.416Z,1.20
2024-03-27T15:02:44.922Z,1.70
2024-03-27T15:05:35.004Z,2.50
2024-03-27T15:08:24.681Z,1.90
2024-03-27T15:11:14.256Z,2.30
2024-03-27T15:14:03.834Z,2.30
2024-03-27T15:16:53.307Z,2.20
2024-03-27T15:19:42.978Z,2.10
2024-03-27T15:22:33.395Z,1.80
2024-03-27T15:25:24.201Z,2.10
2024-03-27T15:28:14.489Z,2.10
2024-03-27T15:31:04.777Z,1.80
2024-03-27T15:33:55.014Z,2.50
2024-03-27T15:36:45.045Z,2.40
2024-03-27T15:39:35.571Z,2.30
2024-03-27T15:42:25.337Z,2.30
2024-03-27T15:45:15.430Z,1.90
2024-03-27T15:48:06.146Z,2.00
2024-03-27T15:50:56.116Z,2.30
2024-03-27T15:53:46.278Z,2.00
2024-03-27T15:56:36.181Z,1.90
2024-03-27T15:59:27.202Z,1.60
2024-03-27T16:02:17.378Z,2.00
2024-03-27T16:05:07.376Z,2.00
2024-03-27T16:08:01.156Z,1.70
2024-03-27T16:10:54.191Z,1.60
2024-03-27T16:13:46.746Z,1.80
2024-03-27T16:16:38.153Z,1.80
2024-03-27T16:22:17.517Z,2.50
2024-03-27T16:25:08.579Z,2.20
2024-03-27T16:27:58.945Z,2.60
2024-03-27T16:30:49.526Z,2.30
2024-03-27T16:33:40.126Z,2.20
2024-03-27T16:36:31.221Z,2.10
2024-03-27T16:39:20.894Z,2.00
2024-03-27T16:42:12.019Z,3.00
2024-03-27T16:45:02.322Z,2.50
2024-03-27T16:47:52.802Z,3.30
2024-03-27T16:53:33.377Z,2.70
2024-03-27T16:56:23.446Z,3.60
2024-03-27T16:59:13.556Z,3.50
2024-03-27T17:02:04.220Z,3.70
2024-03-27T17:04:54.337Z,3.90
2024-03-27T17:07:44.739Z,3.60
2024-03-27T17:10:34.742Z,4.70
2024-03-27T17:13:24.906Z,4.70
2024-03-27T17:16:15.000Z,5.40
2024-03-27T17:19:05.341Z,4.20
2024-03-27T17:21:55.273Z,2.80
2024-03-27T17:24:45.374Z,2.40
2024-03-27T17:27:35.547Z,2.80
2024-03-27T17:30:25.409Z,2.50
2024-03-27T17:33:15.519Z,2.60
2024-03-27T17:36:06.225Z,2.40
2024-03-27T17:38:56.401Z,3.10
2024-03-27T17:41:46.394Z,2.60
2024-03-27T17:44:35.873Z,3.20
2024-03-27T17:47:25.874Z,3.60
2024-03-27T17:50:15.427Z,3.10
2024-03-27T17:53:05.513Z,3.40
2024-03-27T17:55:55.999Z,3.50
2024-03-27T17:58:46.303Z,3.20
2024-03-27T18:01:36.185Z,3.20
2024-03-27T18:04:26.176Z,3.10
2024-03-27T18:07:16.358Z,3.30
2024-03-27T18:10:06.880Z,3.20
2024-03-27T18:12:57.068Z,3.40
2024-03-27T18:15:47.693Z,2.90
2024-03-27T18:18:38.252Z,3.00
2024-03-27T18:21:28.524Z,3.80
2024-03-27T18:24:18.730Z,3.50
2024-03-27T18:27:10.021Z,3.30
2024-03-27T18:30:00.438Z,3.50
2024-03-27T18:32:51.028Z,3.60
2024-03-27T18:35:41.741Z,3.50
2024-03-27T18:38:32.347Z,3.80
2024-03-27T18:41:22.923Z,5.30
2024-03-27T18:44:12.927Z,5.40
2024-03-27T18:47:03.321Z,7.00
2024-03-27T18:49:55.346Z,6.80
2024-03-27T18:52:45.954Z,6.00
2024-03-27T18:55:36.254Z,5.60
2024-03-27T18:58:27.064Z,4.80
2024-03-27T19:01:17.559Z,4.50
2024-03-27T19:04:08.149Z,4.20
2024-03-27T19:06:58.035Z,3.80
2024-03-27T19:09:49.142Z,3.60
2024-03-27T19:12:39.443Z,3.50
2024-03-27T19:15:29.297Z,4.00
2024-03-27T19:18:19.249Z,4.10
2024-03-27T19:21:09.269Z,3.80
2024-03-27T19:23:59.163Z,4.30
2024-03-27T19:26:49.475Z,3.50
2024-03-27T19:29:39.763Z,3.50
2024-03-27T19:32:30.227Z,3.30
2024-03-27T19:35:21.757Z,3.40
2024-03-27T19:38:14.061Z,3.20
2024-03-27T19:41:05.228Z,3.00
2024-03-27T19:43:55.710Z,3.40
2024-03-27T19:46:46.146Z,3.10
2024-03-27T19:49:36.914Z,2.70
2024-03-27T19:52:32.188Z,2.80
2024-03-27T19:55:28.852Z,3.10
2024-03-27T19:58:19.356Z,3.60
2024-03-27T20:01:12.415Z,4.00
2024-03-27T20:04:02.602Z,4.10
2024-03-27T20:06:52.903Z,3.40
2024-03-27T20:09:43.806Z,3.40
2024-03-27T20:12:33.897Z,3.00
2024-03-27T20:15:24.991Z,3.30
2024-03-27T20:18:14.778Z,4.30
2024-03-27T20:21:05.970Z,3.90
2024-03-27T20:26:46.673Z,3.90
2024-03-27T20:29:36.764Z,4.30
2024-03-27T20:32:26.770Z,5.10
2024-03-27T20:35:16.836Z,4.20
2024-03-27T20:38:07.362Z,5.00
2024-03-27T20:40:57.422Z,4.70
2024-03-27T20:43:48.446Z,5.90
2024-03-27T20:46:40.712Z,6.00
2024-03-27T20:49:31.054Z,6.90
2024-03-27T20:52:20.549Z,6.00
2024-03-27T20:55:10.895Z,7.30
2024-03-27T20:58:01.839Z,7.40
2024-03-27T21:00:51.726Z,6.50
2024-03-27T21:03:42.519Z,8.30
2024-03-27T21:06:32.504Z,8.10
2024-03-27T21:09:23.093Z,6.60
2024-03-27T21:12:14.508Z,6.80
2024-03-27T21:15:05.546Z,6.30
2024-03-27T21:20:44.968Z,6.60
2024-03-27T21:23:34.539Z,6.00
2024-03-27T21:26:24.630Z,5.60
2024-03-27T21:29:14.720Z,7.00
2024-03-27T21:32:04.502Z,6.40
2024-03-27T21:34:57.137Z,5.90
2024-03-27T21:37:46.925Z,6.00
2024-03-27T21:40:36.698Z,6.00
2024-03-27T21:43:26.995Z,7.10
2024-03-27T21:46:16.874Z,6.00
2024-03-27T21:49:06.268Z,7.40
2024-03-27T21:51:56.126Z,7.40
2024-03-27T21:54:45.702Z,7.80
2024-03-27T21:57:35.484Z,9.30
2024-03-27T22:00:25.569Z,8.00
2024-03-27T22:03:15.446Z,7.50
2024-03-27T22:06:05.851Z,7.50
2024-03-27T22:08:56.058Z,7.30
2024-03-27T22:11:46.146Z,7.10
2024-03-27T22:14:36.334Z,8.00
2024-03-27T22:17:26.212Z,7.20
2024-03-27T22:20:16.865Z,6.50
2024-03-27T22:23:06.580Z,6.50
2024-03-27T22:25:56.349Z,7.00
2024-03-27T22:28:46.132Z,6.70
2024-03-27T22:31:36.540Z,7.40
2024-03-27T22:34:26.426Z,6.70
2024-03-27T22:37:16.106Z,7.70
2024-03-27T22:40:06.895Z,8.00
2024-03-27T22:42:56.786Z,6.90
2024-03-27T22:45:46.142Z,6.60
2024-03-27T22:48:41.077Z,7.30
2024-03-27T22:51:31.441Z,6.10
2024-03-27T22:54:21.424Z,7.30
2024-03-27T22:57:11.515Z,7.40
2024-03-27T23:00:14.725Z,7.00
2024-03-27T23:03:04.483Z,7.30
2024-03-27T23:05:54.683Z,6.90
2024-03-27T23:08:44.764Z,7.50
2024-03-27T23:11:34.638Z,7.50
2024-03-27T23:14:24.016Z,8.00
2024-03-27T23:17:13.584Z,7.30
2024-03-27T23:20:03.372Z,6.60
2024-03-27T23:22:53.573Z,7.30
2024-03-27T23:25:43.459Z,8.10
2024-03-27T23:28:32.706Z,7.90
2024-03-27T23:31:23.303Z,6.90
2024-03-27T23:34:13.028Z,7.70
2024-03-27T23:37:02.606Z,7.60
2024-03-27T23:39:52.445Z,8.40
2024-03-27T23:42:43.073Z,6.10
2024-03-27T23:45:33.846Z,7.00
2024-03-27T23:48:24.143Z,6.60
2024-03-27T23:51:13.920Z,7.30
2024-03-27T23:54:03.920Z,7.60
2024-03-27T23:56:54.103Z,7.20
2024-03-27T23:59:43.983Z,7.40
